createdAt,value
2018-08-31T03:54:20.204Z,0
2018-08-31T03:55:22.514Z,0
2018-08-31T03:56:24.001Z,0
2018-08-31T03:57:25.428Z,0
2018-08-31T03:58:26.980Z,0
2018-08-31T03:59:29.459Z,0
2018-08-31T04:00:31.175Z,0
2018-08-31T04:01:34.173Z,0
2018-08-31T04:02:35.862Z,0
2018-08-31T04:03:37.782Z,0
2018-08-31T04:04:39.471Z,0
2018-08-31T04:05:41.213Z,0
2018-08-31T04:06:42.928Z,0
2018-08-31T04:07:45.313Z,0
2018-08-31T04:08:47.053Z,4
2018-08-31T04:09:48.729Z,4
2018-08-31T04:10:50.493Z,4
2018-08-31T04:11:52.289Z,4
2018-08-31T04:12:54.099Z,4
2018-08-31T04:13:55.810Z,8
2018-08-31T04:14:57.548Z,4
2018-08-31T04:15:59.894Z,4
2018-08-31T04:17:01.741Z,8
2018-08-31T04:18:03.457Z,8
2018-08-31T04:19:05.844Z,12
2018-08-31T04:20:07.708Z,12
2018-08-31T04:21:09.954Z,16
2018-08-31T04:22:11.661Z,20
2018-08-31T04:23:13.908Z,20
2018-08-31T04:24:16.346Z,24
2018-08-31T04:25:18.065Z,32
2018-08-31T04:26:19.747Z,36
2018-08-31T04:27:21.409Z,40
2018-08-31T04:28:23.433Z,48
2018-08-31T04:29:25.368Z,52
2018-08-31T04:30:27.394Z,60
2018-08-31T04:31:29.793Z,68
2018-08-31T04:32:31.406Z,76
2018-08-31T04:33:33.128Z,84
2018-08-31T04:34:35.620Z,96
2018-08-31T04:35:37.450Z,104
2018-08-31T04:36:39.134Z,112
2018-08-31T04:37:41.064Z,124
2018-08-31T04:38:42.808Z,136
2018-08-31T04:39:44.556Z,148
2018-08-31T04:40:46.240Z,164
2018-08-31T04:41:48.193Z,180
2018-08-31T04:42:50.715Z,192
2018-08-31T04:43:52.375Z,216
2018-08-31T04:44:54.053Z,236
2018-08-31T04:45:55.902Z,264
2018-08-31T04:46:58.050Z,292
2018-08-31T04:48:00.461Z,324
2018-08-31T04:49:02.113Z,360
2018-08-31T04:50:04.361Z,396
2018-08-31T04:51:06.041Z,428
2018-08-31T04:52:08.450Z,464
2018-08-31T04:53:10.144Z,504
2018-08-31T04:54:11.811Z,544
2018-08-31T04:55:13.568Z,580
2018-08-31T04:56:15.182Z,620
2018-08-31T04:57:17.862Z,656
2018-08-31T04:58:19.386Z,696
2018-08-31T04:59:21.854Z,740
2018-08-31T05:00:23.493Z,784
2018-08-31T05:01:25.890Z,824
2018-08-31T05:02:27.527Z,860
2018-08-31T05:03:29.185Z,896
2018-08-31T05:04:30.942Z,936
2018-08-31T05:05:33.751Z,972
2018-08-31T05:06:35.671Z,1012
2018-08-31T05:07:37.566Z,1052
2018-08-31T05:08:39.468Z,1100
2018-08-31T05:09:42.325Z,1144
2018-08-31T05:10:43.863Z,1188
2018-08-31T05:11:45.592Z,1228
2018-08-31T05:12:47.274Z,1268
2018-08-31T05:13:49.013Z,1312
2018-08-31T05:14:50.710Z,1348
2018-08-31T05:15:52.412Z,1384
2018-08-31T05:16:55.204Z,1424
2018-08-31T05:17:57.075Z,1460
2018-08-31T05:18:58.998Z,1504
2018-08-31T05:20:00.969Z,1540
2018-08-31T05:21:02.663Z,1576
2018-08-31T05:22:04.402Z,1616
2018-08-31T05:23:06.197Z,1652
2018-08-31T05:24:08.794Z,1692
2018-08-31T05:25:11.247Z,1736
2018-08-31T05:26:13.026Z,1780
2018-08-31T05:27:15.165Z,1824
2018-08-31T05:28:16.872Z,1872
2018-08-31T05:29:18.849Z,1924
2018-08-31T05:30:20.595Z,1976
2018-08-31T05:31:22.632Z,2024
2018-08-31T05:32:25.181Z,2076
2018-08-31T05:33:26.902Z,2124
2018-08-31T05:34:28.531Z,2176
2018-08-31T05:35:30.267Z,2228
2018-08-31T05:36:32.043Z,2280
2018-08-31T05:37:33.672Z,2340
2018-08-31T05:38:35.439Z,2396
2018-08-31T05:39:37.541Z,2456
2018-08-31T05:40:39.528Z,2524
2018-08-31T05:41:41.236Z,2600
2018-08-31T05:42:43.314Z,2676
2018-08-31T05:43:44.960Z,2764
2018-08-31T05:44:46.973Z,2860
2018-08-31T05:45:48.649Z,2924
2018-08-31T05:46:50.773Z,3020
2018-08-31T05:47:52.823Z,3112
2018-08-31T05:48:54.743Z,3204
2018-08-31T05:49:56.637Z,3272
2018-08-31T05:50:58.385Z,3352
2018-08-31T05:52:00.184Z,3444
2018-08-31T05:53:02.012Z,3540
2018-08-31T05:54:03.773Z,3640
2018-08-31T05:55:05.760Z,3740
2018-08-31T05:56:07.483Z,3848
2018-08-31T05:57:09.230Z,3964
2018-08-31T05:58:10.916Z,4048
2018-08-31T05:59:12.648Z,4144
2018-08-31T06:00:14.532Z,4240
2018-08-31T06:01:16.231Z,4340
2018-08-31T06:02:18.268Z,4436
2018-08-31T06:03:19.946Z,4536
2018-08-31T06:04:21.927Z,4652
2018-08-31T06:05:23.972Z,4768
2018-08-31T06:06:26.146Z,4904
2018-08-31T06:07:27.829Z,5000
2018-08-31T06:08:29.580Z,5116
2018-08-31T06:09:31.667Z,5232
2018-08-31T06:10:33.473Z,5356
2018-08-31T06:11:35.734Z,5504
2018-08-31T06:12:37.574Z,5644
2018-08-31T06:13:39.590Z,5760
2018-08-31T06:14:41.599Z,5908
2018-08-31T06:15:43.625Z,6056
2018-08-31T06:16:45.394Z,6188
2018-08-31T06:17:47.525Z,6316
2018-08-31T06:18:49.214Z,6440
2018-08-31T06:19:50.906Z,6572
2018-08-31T06:20:52.759Z,6692
2018-08-31T06:21:54.859Z,6800
2018-08-31T06:22:56.993Z,6900
2018-08-31T06:23:58.863Z,6992
2018-08-31T06:25:00.993Z,7092
2018-08-31T06:26:02.646Z,7176
2018-08-31T06:27:04.426Z,7264
2018-08-31T06:28:06.200Z,7348
2018-08-31T06:29:08.236Z,7428
2018-08-31T06:30:10.073Z,7520
2018-08-31T06:31:12.083Z,7616
2018-08-31T06:32:13.832Z,7716
2018-08-31T06:33:15.718Z,7812
2018-08-31T06:34:17.657Z,7908
2018-08-31T06:35:19.739Z,7992
2018-08-31T06:36:21.758Z,8084
2018-08-31T06:37:23.737Z,8168
2018-08-31T06:38:25.447Z,8252
2018-08-31T06:39:27.225Z,8328
2018-08-31T06:40:29.089Z,8392
2018-08-31T06:41:30.727Z,8460
2018-08-31T06:42:32.781Z,8532
2018-08-31T06:43:34.616Z,8596
2018-08-31T06:44:36.807Z,8668
2018-08-31T06:45:38.895Z,8736
2018-08-31T06:46:40.980Z,8796
2018-08-31T06:47:43.001Z,8840
2018-08-31T06:48:44.720Z,8864
2018-08-31T06:49:46.468Z,8876
2018-08-31T06:50:48.515Z,8864
2018-08-31T06:51:50.662Z,8864
2018-08-31T06:52:52.853Z,8884
2018-08-31T06:53:55.058Z,8884
2018-08-31T06:54:56.739Z,8936
2018-08-31T06:55:58.723Z,9028
2018-08-31T06:57:00.408Z,9104
2018-08-31T06:58:02.187Z,9192
2018-08-31T06:59:04.128Z,9292
2018-08-31T07:00:05.819Z,9500
2018-08-31T07:01:07.960Z,9776
2018-08-31T07:02:10.110Z,9968
2018-08-31T07:03:12.635Z,10148
2018-08-31T07:04:14.830Z,10392
2018-08-31T07:05:16.951Z,10636
2018-08-31T07:06:19.125Z,10916
2018-08-31T07:07:21.242Z,11064
2018-08-31T07:08:22.891Z,11592
2018-08-31T07:09:25.120Z,11992
2018-08-31T07:10:26.910Z,12140
2018-08-31T07:11:28.935Z,12412
2018-08-31T07:12:30.783Z,12016
2018-08-31T07:13:33.066Z,11864
2018-08-31T07:14:34.866Z,12196
2018-08-31T07:15:37.226Z,12220
2018-08-31T07:16:39.293Z,12356
2018-08-31T07:17:41.080Z,12380
2018-08-31T07:18:43.464Z,12532
2018-08-31T07:19:46.452Z,12668
2018-08-31T07:20:47.965Z,12536
2018-08-31T07:21:49.859Z,12220
2018-08-31T07:22:51.979Z,12072
2018-08-31T07:23:54.257Z,12116
2018-08-31T07:24:56.432Z,11884
2018-08-31T07:25:58.195Z,11772
2018-08-31T07:27:00.240Z,11768
2018-08-31T07:28:02.703Z,11556
2018-08-31T07:29:04.657Z,11040
2018-08-31T07:30:06.416Z,10532
2018-08-31T07:31:08.753Z,10456
2018-08-31T07:32:11.099Z,10492
2018-08-31T07:33:12.872Z,10580
2018-08-31T07:34:14.622Z,12216
2018-08-31T07:35:16.832Z,12372
2018-08-31T07:36:18.862Z,12408
2018-08-31T07:37:20.480Z,12172
2018-08-31T07:38:22.229Z,13072
2018-08-31T07:39:24.485Z,13324
2018-08-31T07:40:26.616Z,13956
2018-08-31T07:41:28.803Z,14548
2018-08-31T07:42:31.157Z,15116
2018-08-31T07:43:33.299Z,15488
2018-08-31T07:44:36.011Z,15712
2018-08-31T07:45:38.299Z,16032
2018-08-31T07:46:40.218Z,16768
2018-08-31T07:47:42.410Z,16864
2018-08-31T07:48:44.104Z,17120
2018-08-31T07:49:46.246Z,18368
2018-08-31T07:50:48.457Z,18432
2018-08-31T07:51:50.421Z,17792
2018-08-31T07:52:52.913Z,16064
2018-08-31T07:53:54.689Z,14944
2018-08-31T07:54:57.000Z,14492
2018-08-31T07:55:58.858Z,14376
2018-08-31T07:57:01.052Z,14524
2018-08-31T07:58:03.284Z,15360
2018-08-31T07:59:05.432Z,15296
2018-08-31T08:00:07.219Z,16032
2018-08-31T08:01:09.425Z,16256
2018-08-31T08:02:11.271Z,17376
2018-08-31T08:03:13.075Z,18208
2018-08-31T08:04:14.844Z,18528
2018-08-31T08:05:17.264Z,18688
2018-08-31T08:06:19.062Z,18688
2018-08-31T08:07:20.885Z,18624
2018-08-31T08:08:22.679Z,18560
2018-08-31T08:09:25.018Z,18432
2018-08-31T08:10:27.178Z,18720
2018-08-31T08:11:29.500Z,19136
2018-08-31T08:12:31.242Z,18752
2018-08-31T08:13:33.524Z,18496
2018-08-31T08:14:35.793Z,18272
2018-08-31T08:15:38.127Z,18144
2018-08-31T08:16:39.873Z,18080
2018-08-31T08:17:41.616Z,18208
2018-08-31T08:18:43.416Z,18336
2018-08-31T08:19:45.710Z,18592
2018-08-31T08:20:47.807Z,18464
2018-08-31T08:21:50.035Z,18144
2018-08-31T08:22:52.184Z,17632
2018-08-31T08:23:54.027Z,16992
2018-08-31T08:24:56.224Z,16768
2018-08-31T08:25:58.410Z,16800
2018-08-31T08:27:00.144Z,16608
2018-08-31T08:28:01.839Z,16672
2018-08-31T08:29:04.047Z,16992
2018-08-31T08:30:05.805Z,17376
2018-08-31T08:31:07.565Z,17568
2018-08-31T08:32:09.702Z,17952
2018-08-31T08:33:11.418Z,18560
2018-08-31T08:34:13.620Z,18944
2018-08-31T08:35:15.674Z,19616
2018-08-31T08:36:17.451Z,20320
2018-08-31T08:37:19.186Z,20448
2018-08-31T08:38:21.036Z,19904
2018-08-31T08:39:22.842Z,19840
2018-08-31T08:40:24.592Z,17984
2018-08-31T08:41:26.873Z,18368
2018-08-31T08:42:28.891Z,20224
2018-08-31T08:43:30.868Z,22656
2018-08-31T08:44:32.662Z,24736
2018-08-31T08:45:34.468Z,25088
2018-08-31T08:46:36.654Z,24896
2018-08-31T08:47:38.626Z,25152
2018-08-31T08:48:40.779Z,25472
2018-08-31T08:49:42.777Z,25472
2018-08-31T08:50:44.539Z,25216
2018-08-31T08:51:46.430Z,23232
2018-08-31T08:52:48.145Z,23424
2018-08-31T08:53:50.108Z,23584
2018-08-31T08:54:52.388Z,24928
2018-08-31T08:55:54.241Z,24768
2018-08-31T08:56:56.324Z,23776
2018-08-31T08:57:58.095Z,24224
2018-08-31T08:59:00.665Z,23808
2018-08-31T09:00:02.438Z,22720
2018-08-31T09:01:04.799Z,24928
2018-08-31T09:02:07.335Z,20896
2018-08-31T09:03:09.017Z,21760
2018-08-31T09:04:10.759Z,24448
2018-08-31T09:05:12.879Z,24128
2018-08-31T09:06:14.962Z,21536
2018-08-31T09:07:16.816Z,19872
2018-08-31T09:08:18.832Z,19904
2018-08-31T09:09:20.600Z,19520
2018-08-31T09:10:22.363Z,21120
2018-08-31T09:11:24.207Z,23776
2018-08-31T09:12:26.101Z,23808
2018-08-31T09:13:27.683Z,16864
2018-08-31T09:14:29.540Z,17312
2018-08-31T09:15:31.260Z,15868
2018-08-31T09:16:33.306Z,16672
2018-08-31T09:17:35.124Z,17376
2018-08-31T09:18:37.412Z,15224
2018-08-31T09:19:39.661Z,15172
2018-08-31T09:20:41.302Z,16832
2018-08-31T09:21:42.972Z,57952
2018-08-31T09:22:45.023Z,16960
2018-08-31T09:23:46.710Z,16416
2018-08-31T09:24:48.592Z,16232
2018-08-31T09:25:51.350Z,18176
2018-08-31T09:26:53.243Z,21408
2018-08-31T09:27:55.137Z,56832
2018-08-31T09:28:56.859Z,59328
2018-08-31T09:29:59.345Z,59584
2018-08-31T09:31:01.145Z,64320
2018-08-31T09:32:03.117Z,66944
2018-08-31T09:33:04.858Z,69696
2018-08-31T09:34:07.063Z,71616
2018-08-31T09:35:08.906Z,74048
2018-08-31T09:36:11.632Z,74784
2018-08-31T09:37:13.920Z,23744
2018-08-31T09:38:15.622Z,20864
2018-08-31T09:39:17.607Z,24288
2018-08-31T09:40:20.222Z,82240
2018-08-31T09:41:21.785Z,80512
2018-08-31T09:42:24.457Z,80704
2018-08-31T09:43:26.475Z,83488
2018-08-31T09:44:28.383Z,87968
2018-08-31T09:45:30.284Z,86688
2018-08-31T09:46:32.594Z,81184
2018-08-31T09:47:34.429Z,76640
2018-08-31T09:48:36.403Z,75648
2018-08-31T09:49:38.157Z,75392
2018-08-31T09:50:40.853Z,72544
2018-08-31T09:51:42.648Z,76064
2018-08-31T09:52:45.123Z,70848
2018-08-31T09:53:47.235Z,75456
2018-08-31T09:54:49.272Z,76096
2018-08-31T09:55:51.173Z,76672
2018-08-31T09:56:53.644Z,77376
2018-08-31T09:57:55.522Z,78528
2018-08-31T09:58:58.138Z,74976
2018-08-31T09:59:59.927Z,46240
2018-08-31T10:01:01.670Z,52096
2018-08-31T10:02:04.086Z,66784
2018-08-31T10:03:06.434Z,54592
2018-08-31T10:04:08.282Z,41088
2018-08-31T10:05:10.538Z,42848
2018-08-31T10:06:12.306Z,54336
2018-08-31T10:07:14.052Z,48320
2018-08-31T10:08:16.513Z,34496
2018-08-31T10:09:18.760Z,35936
2018-08-31T10:10:21.405Z,45952
2018-08-31T10:11:23.091Z,70976
2018-08-31T10:12:25.009Z,72416
2018-08-31T10:13:26.778Z,72960
2018-08-31T10:14:28.603Z,73248
2018-08-31T10:15:30.519Z,72960
2018-08-31T10:16:32.290Z,71680
2018-08-31T10:17:34.355Z,67520
2018-08-31T10:18:36.161Z,65664
2018-08-31T10:19:38.491Z,66560
2018-08-31T10:20:40.563Z,63616
2018-08-31T10:21:42.561Z,64160
2018-08-31T10:22:44.511Z,64800
2018-08-31T10:23:46.159Z,65376
2018-08-31T10:24:47.944Z,63776
2018-08-31T10:25:49.746Z,63872
2018-08-31T10:26:51.649Z,63552
2018-08-31T10:27:54.078Z,60896
2018-08-31T10:28:55.827Z,59424
2018-08-31T10:29:57.623Z,36320
2018-08-31T10:30:59.447Z,28000
2018-08-31T10:32:01.807Z,26112
2018-08-31T10:33:03.925Z,24576
2018-08-31T10:34:05.693Z,37184
2018-08-31T10:35:07.432Z,43488
2018-08-31T10:36:09.194Z,33760
2018-08-31T10:37:11.114Z,36320
2018-08-31T10:38:12.944Z,20864
2018-08-31T10:39:15.159Z,19040
2018-08-31T10:40:16.962Z,17984
2018-08-31T10:41:19.180Z,18240
2018-08-31T10:42:22.159Z,18688
2018-08-31T10:43:24.293Z,18976
2018-08-31T10:44:26.736Z,21568
2018-08-31T10:45:28.681Z,33920
2018-08-31T10:46:31.219Z,23168
2018-08-31T10:47:32.880Z,19648
2018-08-31T10:48:34.878Z,23648
2018-08-31T10:49:36.850Z,22656
2018-08-31T10:50:38.636Z,21056
2018-08-31T10:51:41.350Z,22336
2018-08-31T10:52:43.327Z,23776
2018-08-31T10:53:45.828Z,29952
2018-08-31T10:54:48.286Z,53056
2018-08-31T10:55:50.036Z,33536
2018-08-31T10:56:51.985Z,52224
2018-08-31T10:57:54.835Z,41248
2018-08-31T10:58:57.590Z,30848
2018-08-31T10:59:59.417Z,28608
2018-08-31T11:01:01.969Z,13540
2018-08-31T11:02:03.809Z,14296
2018-08-31T11:03:06.271Z,19648
2018-08-31T11:04:08.141Z,14100
2018-08-31T11:05:10.777Z,10084
2018-08-31T11:06:13.472Z,10112
2018-08-31T11:07:15.716Z,9848
2018-08-31T11:08:17.997Z,9932
2018-08-31T11:09:19.847Z,9824
2018-08-31T11:10:22.218Z,9332
2018-08-31T11:11:24.373Z,9180
2018-08-31T11:12:26.699Z,9440
2018-08-31T11:13:28.447Z,9736
2018-08-31T11:14:30.474Z,9828
2018-08-31T11:15:32.379Z,9944
2018-08-31T11:16:34.263Z,10224
2018-08-31T11:17:36.557Z,10556
2018-08-31T11:18:38.425Z,10884
2018-08-31T11:19:40.470Z,11240
2018-08-31T11:20:42.213Z,11600
2018-08-31T11:21:44.187Z,11864
2018-08-31T11:22:45.918Z,12044
2018-08-31T11:23:47.698Z,12332
2018-08-31T11:24:49.443Z,12820
2018-08-31T11:25:51.629Z,13364
2018-08-31T11:26:53.334Z,13972
2018-08-31T11:27:55.666Z,14660
2018-08-31T11:28:57.673Z,15328
2018-08-31T11:29:59.570Z,16160
2018-08-31T11:31:02.053Z,16960
2018-08-31T11:32:04.370Z,17760
2018-08-31T11:33:06.585Z,18528
2018-08-31T11:34:08.543Z,19296
2018-08-31T11:35:11.193Z,20160
2018-08-31T11:36:13.212Z,21088
2018-08-31T11:37:15.905Z,22208
2018-08-31T11:38:17.668Z,23616
2018-08-31T11:39:20.379Z,25120
2018-08-31T11:40:22.721Z,28768
2018-08-31T11:41:25.106Z,31456
2018-08-31T11:42:26.812Z,37952
2018-08-31T11:43:28.645Z,60192
2018-08-31T11:44:30.467Z,64480
2018-08-31T11:45:32.852Z,68768
2018-08-31T11:46:34.727Z,69184
2018-08-31T11:47:37.293Z,67104
2018-08-31T11:48:39.132Z,64320
2018-08-31T11:49:41.889Z,61984
2018-08-31T11:50:44.413Z,61696
2018-08-31T11:51:46.240Z,61344
2018-08-31T11:52:49.048Z,58304
2018-08-31T11:53:51.502Z,55616
2018-08-31T11:54:53.773Z,52448
2018-08-31T11:55:55.649Z,51040
2018-08-31T11:56:57.522Z,50304
2018-08-31T11:57:59.516Z,49312
2018-08-31T11:59:01.425Z,48768
2018-08-31T12:00:03.263Z,49088
2018-08-31T12:01:05.228Z,50112
2018-08-31T12:02:07.274Z,49856
2018-08-31T12:03:09.033Z,49312
2018-08-31T12:04:11.000Z,50176
2018-08-31T12:05:12.770Z,51168
2018-08-31T12:06:14.683Z,51872
2018-08-31T12:07:16.716Z,51456
2018-08-31T12:08:18.506Z,52192
2018-08-31T12:09:20.561Z,29888
2018-08-31T12:10:22.324Z,45632
2018-08-31T12:11:24.294Z,47136
2018-08-31T12:12:26.564Z,47904
2018-08-31T12:13:28.707Z,47264
2018-08-31T12:14:30.686Z,41088
2018-08-31T12:15:32.564Z,23904
2018-08-31T12:16:35.163Z,23584
2018-08-31T12:17:36.997Z,24896
2018-08-31T12:18:38.842Z,22688
2018-08-31T12:19:40.708Z,36160
2018-08-31T12:20:42.677Z,21120
2018-08-31T12:21:44.561Z,21440
2018-08-31T12:22:46.362Z,19104
2018-08-31T12:23:48.250Z,19552
2018-08-31T12:24:50.327Z,19904
2018-08-31T12:25:52.210Z,20000
2018-08-31T12:26:54.570Z,20256
2018-08-31T12:27:56.378Z,20480
2018-08-31T12:28:58.373Z,20608
2018-08-31T12:30:01.106Z,21152
2018-08-31T12:31:03.638Z,22048
2018-08-31T12:32:05.701Z,22944
2018-08-31T12:33:07.536Z,24192
2018-08-31T12:34:09.602Z,42656
2018-08-31T12:35:11.722Z,59200
2018-08-31T12:36:14.003Z,59872
2018-08-31T12:37:15.891Z,55392
2018-08-31T12:38:17.778Z,60160
2018-08-31T12:39:19.557Z,57056
2018-08-31T12:40:21.480Z,54208
2018-08-31T12:41:23.398Z,22944
2018-08-31T12:42:25.921Z,16128
2018-08-31T12:43:27.658Z,15048
2018-08-31T12:44:29.863Z,14504
2018-08-31T12:45:31.676Z,14252
2018-08-31T12:46:33.599Z,14272
2018-08-31T12:47:35.419Z,14536
2018-08-31T12:48:37.741Z,14768
2018-08-31T12:49:39.385Z,15000
2018-08-31T12:50:41.633Z,15308
2018-08-31T12:51:43.949Z,16224
2018-08-31T12:52:46.075Z,17152
2018-08-31T12:53:48.392Z,17920
2018-08-31T12:54:50.412Z,18688
2018-08-31T12:55:52.679Z,19264
2018-08-31T12:56:54.959Z,20128
2018-08-31T12:57:56.794Z,20928
2018-08-31T12:58:58.876Z,21664
2018-08-31T13:00:00.979Z,22336
2018-08-31T13:01:02.922Z,22976
2018-08-31T13:02:04.863Z,23520
2018-08-31T13:03:07.320Z,24192
2018-08-31T13:04:09.185Z,46048
2018-08-31T13:05:10.985Z,55712
2018-08-31T13:06:13.060Z,55776
2018-08-31T13:07:15.088Z,54560
2018-08-31T13:08:17.289Z,53216
2018-08-31T13:09:19.036Z,52480
2018-08-31T13:10:21.062Z,51936
2018-08-31T13:11:22.875Z,50880
2018-08-31T13:12:24.886Z,49024
2018-08-31T13:13:27.582Z,44192
2018-08-31T13:14:29.860Z,38304
2018-08-31T13:15:31.790Z,35264
2018-08-31T13:16:33.872Z,34720
2018-08-31T13:17:35.923Z,34912
2018-08-31T13:18:37.888Z,35072
2018-08-31T13:19:40.515Z,35200
2018-08-31T13:20:42.707Z,35104
2018-08-31T13:21:44.685Z,34752
2018-08-31T13:22:46.724Z,34496
2018-08-31T13:23:48.793Z,34048
2018-08-31T13:24:50.786Z,33984
2018-08-31T13:25:52.610Z,33728
2018-08-31T13:26:55.071Z,33440
2018-08-31T13:27:57.053Z,32960
2018-08-31T13:28:59.211Z,32160
2018-08-31T13:30:01.137Z,31616
2018-08-31T13:31:03.706Z,31232
2018-08-31T13:32:05.406Z,30688
2018-08-31T13:33:07.815Z,30240
2018-08-31T13:34:09.983Z,29760
2018-08-31T13:35:11.800Z,29408
2018-08-31T13:36:13.898Z,28992
2018-08-31T13:37:15.704Z,28960
2018-08-31T13:38:17.665Z,28896
2018-08-31T13:39:19.750Z,28736
2018-08-31T13:40:21.561Z,28672
2018-08-31T13:41:23.488Z,28672
2018-08-31T13:42:25.635Z,28640
2018-08-31T13:43:27.903Z,29152
2018-08-31T13:44:30.262Z,29632
2018-08-31T13:45:34.122Z,30016
2018-08-31T13:46:35.759Z,30752
2018-08-31T13:47:37.897Z,31424
2018-08-31T13:48:39.688Z,30368
2018-08-31T13:49:41.826Z,29152
2018-08-31T13:50:43.684Z,29216
2018-08-31T13:51:45.706Z,29568
2018-08-31T13:52:47.906Z,29280
2018-08-31T13:53:49.672Z,28736
2018-08-31T13:54:51.989Z,28480
2018-08-31T13:55:53.890Z,27456
2018-08-31T13:56:55.889Z,26304
2018-08-31T13:57:58.038Z,25312
2018-08-31T13:59:00.506Z,25152
2018-08-31T14:00:02.442Z,25056
2018-08-31T14:01:04.395Z,25376
2018-08-31T14:02:06.256Z,25472
2018-08-31T14:03:08.228Z,24480
2018-08-31T14:04:10.489Z,23520
2018-08-31T14:05:12.642Z,22848
2018-08-31T14:06:14.426Z,22144
2018-08-31T14:07:16.224Z,21920
2018-08-31T14:08:18.235Z,22080
2018-08-31T14:09:20.371Z,22240
2018-08-31T14:10:22.798Z,22080
2018-08-31T14:11:24.604Z,21664
2018-08-31T14:12:26.713Z,21120
2018-08-31T14:13:28.650Z,21024
2018-08-31T14:14:31.191Z,21024
2018-08-31T14:15:33.220Z,20768
2018-08-31T14:16:34.961Z,20480
2018-08-31T14:17:37.029Z,20352
2018-08-31T14:18:39.286Z,20096
2018-08-31T14:19:41.383Z,19968
2018-08-31T14:20:43.249Z,20192
2018-08-31T14:21:45.608Z,20064
2018-08-31T14:22:47.278Z,20064
2018-08-31T14:23:49.005Z,19904
2018-08-31T14:24:50.800Z,20384
2018-08-31T14:25:52.578Z,20960
2018-08-31T14:26:54.128Z,21280
2018-08-31T14:27:55.789Z,21600
2018-08-31T14:28:57.838Z,22112
2018-08-31T14:29:59.667Z,22528
2018-08-31T14:31:01.415Z,22976
2018-08-31T14:32:03.225Z,23200
2018-08-31T14:33:05.012Z,23168
2018-08-31T14:34:07.064Z,23232
2018-08-31T14:35:08.957Z,23200
2018-08-31T14:36:10.687Z,22848
2018-08-31T14:37:12.553Z,21952
2018-08-31T14:38:14.332Z,21984
2018-08-31T14:39:16.094Z,22336
2018-08-31T14:40:17.885Z,22528
2018-08-31T14:41:19.681Z,22912
2018-08-31T14:42:21.468Z,23616
2018-08-31T14:43:23.171Z,23392
2018-08-31T14:44:24.986Z,22880
2018-08-31T14:45:26.821Z,22400
2018-08-31T14:46:28.611Z,22496
2018-08-31T14:47:30.416Z,23264
2018-08-31T14:48:32.224Z,23904
2018-08-31T14:49:34.148Z,25088
2018-08-31T14:50:35.765Z,24480
2018-08-31T14:51:37.424Z,23264
2018-08-31T14:52:38.932Z,21856
2018-08-31T14:53:40.800Z,22400
2018-08-31T14:54:42.621Z,22656
2018-08-31T14:55:44.398Z,22304
2018-08-31T14:56:46.225Z,22464
2018-08-31T14:57:47.880Z,22112
2018-08-31T14:58:49.684Z,21504
2018-08-31T14:59:51.416Z,21568
2018-08-31T15:00:53.208Z,21536
2018-08-31T15:01:55.075Z,22720
2018-08-31T15:02:56.854Z,24480
2018-08-31T15:03:58.788Z,24928
2018-08-31T15:05:00.464Z,25728
2018-08-31T15:06:02.267Z,27616
2018-08-31T15:07:03.921Z,28320
2018-08-31T15:08:05.951Z,30656
2018-08-31T15:09:07.664Z,32064
2018-08-31T15:10:09.577Z,32544
2018-08-31T15:11:11.343Z,31488
2018-08-31T15:12:13.074Z,30560
2018-08-31T15:13:14.985Z,29408
2018-08-31T15:14:16.798Z,28512
2018-08-31T15:15:18.563Z,29312
2018-08-31T15:16:20.331Z,27456
2018-08-31T15:17:22.205Z,28896
2018-08-31T15:18:24.058Z,29696
2018-08-31T15:19:25.876Z,28864
2018-08-31T15:20:27.643Z,26464
2018-08-31T15:21:29.394Z,23904
2018-08-31T15:22:31.123Z,22048
2018-08-31T15:23:33.054Z,20832
2018-08-31T15:24:34.750Z,20512
2018-08-31T15:25:36.653Z,19008
2018-08-31T15:26:38.267Z,17408
2018-08-31T15:27:40.013Z,16128
2018-08-31T15:28:41.768Z,14572
2018-08-31T15:29:43.596Z,13488
2018-08-31T15:30:45.376Z,12832
2018-08-31T15:31:47.368Z,12364
2018-08-31T15:32:49.123Z,11948
2018-08-31T15:33:50.987Z,11200
2018-08-31T15:34:52.764Z,11016
2018-08-31T15:35:54.604Z,11204
2018-08-31T15:36:56.407Z,11388
2018-08-31T15:37:58.036Z,11204
2018-08-31T15:38:59.887Z,10208
2018-08-31T15:40:01.682Z,9112
2018-08-31T15:41:03.443Z,8648
2018-08-31T15:42:05.260Z,8504
2018-08-31T15:43:06.843Z,8344
2018-08-31T15:44:08.665Z,8232
2018-08-31T15:45:10.432Z,8140
2018-08-31T15:46:12.187Z,8080
2018-08-31T15:47:13.964Z,7968
2018-08-31T15:48:15.716Z,7920
2018-08-31T15:49:17.473Z,7884
2018-08-31T15:50:19.165Z,7872
2018-08-31T15:51:20.991Z,7884
2018-08-31T15:52:22.769Z,7888
2018-08-31T15:53:24.404Z,7844
2018-08-31T15:54:26.124Z,7740
2018-08-31T15:55:27.846Z,7560
2018-08-31T15:56:29.702Z,7408
2018-08-31T15:57:31.410Z,7292
2018-08-31T15:58:33.184Z,7276
2018-08-31T15:59:34.907Z,7276
2018-08-31T16:00:36.727Z,7184
2018-08-31T16:01:38.442Z,7056
2018-08-31T16:02:40.218Z,6928
2018-08-31T16:03:41.888Z,6824
2018-08-31T16:04:43.785Z,6756
2018-08-31T16:05:45.458Z,6688
2018-08-31T16:06:47.253Z,6620
2018-08-31T16:07:49.058Z,6584
2018-08-31T16:08:50.981Z,6524
2018-08-31T16:09:52.707Z,6448
2018-08-31T16:10:54.456Z,6372
2018-08-31T16:11:56.202Z,6296
2018-08-31T16:12:58.073Z,6224
2018-08-31T16:13:59.800Z,6152
2018-08-31T16:15:01.581Z,6088
2018-08-31T16:16:03.390Z,6036
2018-08-31T16:17:05.049Z,5984
2018-08-31T16:18:06.717Z,5936
2018-08-31T16:19:08.601Z,5884
2018-08-31T16:20:10.426Z,5832
2018-08-31T16:21:12.230Z,5780
2018-08-31T16:22:14.036Z,5732
2018-08-31T16:23:15.713Z,5696
2018-08-31T16:24:17.501Z,5660
2018-08-31T16:25:19.353Z,5636
2018-08-31T16:26:21.120Z,5612
2018-08-31T16:27:23.033Z,5596
2018-08-31T16:28:25.344Z,5580
2018-08-31T16:29:27.208Z,5568
2018-08-31T16:30:29.359Z,5548
2018-08-31T16:31:31.303Z,5528
2018-08-31T16:32:33.040Z,5512
2018-08-31T16:33:35.059Z,5480
2018-08-31T16:34:37.159Z,5448
2018-08-31T16:35:38.847Z,5416
2018-08-31T16:36:40.627Z,5376
2018-08-31T16:37:42.696Z,5336
2018-08-31T16:38:44.500Z,5292
2018-08-31T16:39:46.168Z,5252
2018-08-31T16:40:48.244Z,5200
2018-08-31T16:41:50.884Z,5152
2018-08-31T16:42:52.809Z,5096
2018-08-31T16:43:54.633Z,5032
2018-08-31T16:44:56.414Z,4968
2018-08-31T16:45:58.188Z,4904
2018-08-31T16:46:59.876Z,4844
2018-08-31T16:48:01.702Z,4780
2018-08-31T16:49:03.490Z,4724
2018-08-31T16:50:05.602Z,4676
2018-08-31T16:51:07.357Z,4620
2018-08-31T16:52:09.276Z,4564
2018-08-31T16:53:11.481Z,4508
2018-08-31T16:54:13.217Z,4448
2018-08-31T16:55:14.949Z,4392
2018-08-31T16:56:17.144Z,4328
2018-08-31T16:57:18.970Z,4256
2018-08-31T16:58:20.681Z,4180
2018-08-31T16:59:22.791Z,4104
2018-08-31T17:00:24.497Z,4012
2018-08-31T17:01:26.422Z,3928
2018-08-31T17:02:28.633Z,3840
2018-08-31T17:03:30.754Z,3740
2018-08-31T17:04:32.466Z,3644
2018-08-31T17:05:34.288Z,3544
2018-08-31T17:06:36.540Z,3444
2018-08-31T17:07:38.600Z,3340
2018-08-31T17:08:40.765Z,3236
2018-08-31T17:09:42.579Z,3140
2018-08-31T17:10:44.361Z,3056
2018-08-31T17:11:46.230Z,2968
2018-08-31T17:12:47.949Z,2876
2018-08-31T17:13:50.438Z,2788
2018-08-31T17:14:52.423Z,2704
2018-08-31T17:15:54.414Z,2624
2018-08-31T17:16:56.740Z,2548
2018-08-31T17:17:58.366Z,2476
2018-08-31T17:19:00.038Z,2408
2018-08-31T17:20:02.194Z,2336
2018-08-31T17:21:03.914Z,2264
2018-08-31T17:22:05.652Z,2192
2018-08-31T17:23:07.366Z,2120
2018-08-31T17:24:09.679Z,2052
2018-08-31T17:25:11.858Z,1988
2018-08-31T17:26:14.255Z,1932